createdAt,value
2023-02-14T00:01:09.035Z,27.52
2023-02-14T00:03:35.784Z,17.73
2023-02-14T00:06:13.148Z,17.90
2023-02-14T00:08:44.259Z,19.42
2023-02-14T00:11:13.710Z,18.33
2023-02-14T00:14:00.585Z,14.88
2023-02-14T00:16:27.313Z,17.55
2023-02-14T00:19:06.031Z,16.30
2023-02-14T00:21:36.097Z,14.60
2023-02-14T00:24:05.749Z,20.80
2023-02-14T00:26:32.575Z,14.70
2023-02-14T00:28:59.452Z,19.75
2023-02-14T00:31:26.426Z,15.70
2023-02-14T00:33:54.242Z,17.70
2023-02-14T00:36:21.435Z,14.90
2023-02-14T00:38:50.114Z,16.25
2023-02-14T00:41:20.616Z,13.98
2023-02-14T00:43:49.632Z,18.48
2023-02-14T00:46:19.196Z,16.73
2023-02-14T00:48:46.185Z,16.85
2023-02-14T00:51:13.700Z,15.45
2023-02-14T00:53:40.946Z,16.92
2023-02-14T00:56:08.154Z,16.08
2023-02-14T00:58:35.758Z,22.08
2023-02-14T01:01:03.173Z,17.77
2023-02-14T01:03:30.114Z,17.92
2023-02-14T01:05:56.972Z,14.30
2023-02-14T01:08:24.433Z,17.80
2023-02-14T01:10:51.508Z,25.50
2023-02-14T01:13:19.679Z,22.52
2023-02-14T01:15:50.529Z,20.35
2023-02-14T01:18:19.378Z,23.23
2023-02-14T01:20:48.356Z,23.33
2023-02-14T01:23:15.056Z,21.80
2023-02-14T01:25:41.753Z,21.70
2023-02-14T01:28:08.450Z,18.55
2023-02-14T01:30:37.003Z,20.92
2023-02-14T01:33:03.899Z,25.00
2023-02-14T01:35:30.592Z,22.73
2023-02-14T01:37:57.967Z,18.60
2023-02-14T01:40:24.657Z,19.23
2023-02-14T01:42:51.370Z,25.05
2023-02-14T01:45:22.716Z,28.27
2023-02-14T01:47:54.436Z,27.92
2023-02-14T01:50:49.868Z,23.23
2023-02-14T01:53:26.301Z,23.90
2023-02-14T01:56:09.843Z,15.77
2023-02-14T01:58:44.891Z,18.00
2023-02-14T02:01:14.610Z,19.03
2023-02-14T02:03:53.923Z,22.60
2023-02-14T02:06:45.692Z,15.93
2023-02-14T02:09:39.486Z,18.00
2023-02-14T02:12:06.305Z,21.52
2023-02-14T02:14:33.881Z,25.77
2023-02-14T02:17:22.771Z,23.63
2023-02-14T02:20:18.095Z,17.73
2023-02-14T02:23:28.374Z,16.17
2023-02-14T02:26:34.809Z,20.20
2023-02-14T02:29:58.217Z,21.23
2023-02-14T02:33:19.784Z,21.60
2023-02-14T02:35:57.418Z,20.20
2023-02-14T02:38:36.900Z,23.42
2023-02-14T02:41:47.825Z,20.35
2023-02-14T02:44:47.698Z,18.33
2023-02-14T02:47:45.473Z,21.92
2023-02-14T02:50:41.943Z,18.70
2023-02-14T02:53:30.181Z,17.05
2023-02-14T02:56:32.626Z,18.10
2023-02-14T02:59:32.547Z,17.65
2023-02-14T03:02:11.125Z,19.95
2023-02-14T03:04:55.003Z,20.63
2023-02-14T03:07:40.614Z,17.42
2023-02-14T03:10:18.244Z,20.48
2023-02-14T03:13:16.570Z,21.25
2023-02-14T03:16:20.418Z,22.20
2023-02-14T03:20:11.092Z,25.88
2023-02-14T03:22:50.670Z,22.35
2023-02-14T03:25:29.785Z,21.88
2023-02-14T03:28:12.326Z,20.65
2023-02-14T03:31:01.230Z,23.27
2023-02-14T03:33:40.811Z,15.90
2023-02-14T03:36:24.500Z,21.52
2023-02-14T03:39:19.974Z,16.23
2023-02-14T03:41:57.397Z,17.17
2023-02-14T03:44:29.499Z,18.95
2023-02-14T03:47:13.251Z,19.05
2023-02-14T03:50:10.629Z,22.05
2023-02-14T03:52:38.974Z,17.63
2023-02-14T03:55:09.121Z,19.58
2023-02-14T03:57:58.487Z,19.67
2023-02-14T04:00:26.885Z,18.20
2023-02-14T04:03:01.456Z,15.60
2023-02-14T04:05:28.926Z,16.20
2023-02-14T04:07:59.696Z,19.02
2023-02-14T04:10:27.164Z,23.50
2023-02-14T04:12:54.148Z,16.27
2023-02-14T04:15:21.093Z,18.02
2023-02-14T04:18:06.416Z,16.13
2023-02-14T04:20:34.127Z,19.65
2023-02-14T04:23:03.301Z,18.00
2023-02-14T04:25:31.001Z,18.58
2023-02-14T04:27:57.987Z,18.83
2023-02-14T04:30:24.998Z,23.40
2023-02-14T04:32:51.898Z,17.40
2023-02-14T04:35:18.862Z,20.45
2023-02-14T04:37:45.677Z,31.45
2023-02-14T04:40:16.794Z,26.45
2023-02-14T04:42:45.641Z,28.48
2023-02-14T04:45:12.941Z,26.50
2023-02-14T04:47:39.940Z,27.73
2023-02-14T04:50:08.305Z,28.42
2023-02-14T04:52:35.191Z,25.23
2023-02-14T04:55:02.027Z,21.27
2023-02-14T04:57:28.837Z,28.92
2023-02-14T04:59:55.573Z,24.92
2023-02-14T05:02:22.705Z,27.15
2023-02-14T05:04:49.889Z,27.70
2023-02-14T05:07:17.245Z,31.30
2023-02-14T05:09:43.987Z,30.13
2023-02-14T05:12:10.908Z,30.70
2023-02-14T05:14:37.684Z,27.77
2023-02-14T05:17:04.570Z,26.25
2023-02-14T05:19:31.323Z,36.47
2023-02-14T05:21:58.048Z,26.40
2023-02-14T05:24:24.965Z,36.22
2023-02-14T05:26:51.800Z,29.40
2023-02-14T05:29:18.532Z,28.83
2023-02-14T05:31:45.881Z,24.52
2023-02-14T05:34:12.899Z,32.03
2023-02-14T05:36:39.697Z,31.38
2023-02-14T05:39:06.438Z,29.83
2023-02-14T05:41:33.321Z,26.95
2023-02-14T05:44:00.115Z,30.73
2023-02-14T05:46:26.897Z,33.35
2023-02-14T05:48:53.658Z,35.45
2023-02-14T05:51:20.475Z,27.42
2023-02-14T05:53:47.202Z,26.85
2023-02-14T05:56:13.942Z,34.97
2023-02-14T05:58:40.820Z,32.25
2023-02-14T06:01:07.644Z,28.15
2023-02-14T06:03:34.458Z,35.05
2023-02-14T06:06:01.230Z,37.03
2023-02-14T06:08:27.975Z,39.55
2023-02-14T06:10:54.768Z,38.08
2023-02-14T06:13:21.460Z,35.40
2023-02-14T06:15:48.204Z,45.85
2023-02-14T06:18:14.920Z,43.17
2023-02-14T06:20:41.563Z,40.08
2023-02-14T06:23:08.214Z,42.13
2023-02-14T06:25:34.908Z,36.40
2023-02-14T06:28:01.665Z,42.22
2023-02-14T06:30:28.706Z,31.35
2023-02-14T06:32:55.731Z,34.75
2023-02-14T06:35:22.893Z,40.97
2023-02-14T06:37:49.836Z,43.80
2023-02-14T06:40:16.724Z,44.90
2023-02-14T06:42:43.592Z,37.78
2023-02-14T06:45:10.564Z,38.38
2023-02-14T06:47:37.783Z,34.88
2023-02-14T06:50:05.439Z,40.58
2023-02-14T06:52:33.736Z,42.05
2023-02-14T06:55:00.545Z,45.15
2023-02-14T06:57:27.670Z,38.90
2023-02-14T06:59:54.346Z,37.33
2023-02-14T07:02:24.217Z,42.00
2023-02-14T07:04:51.549Z,36.55
2023-02-14T07:07:18.250Z,37.42
2023-02-14T07:09:44.899Z,33.85
2023-02-14T07:12:11.686Z,38.45
2023-02-14T07:14:38.375Z,40.47
2023-02-14T07:17:05.158Z,42.00
2023-02-14T07:19:31.816Z,46.50
2023-02-14T07:21:58.492Z,46.10
2023-02-14T07:24:25.313Z,54.33
2023-02-14T07:26:52.060Z,41.85
2023-02-14T07:29:18.798Z,45.80
2023-02-14T07:31:45.838Z,42.30
2023-02-14T07:34:12.595Z,42.28
2023-02-14T07:36:39.421Z,45.50
2023-02-14T07:39:06.125Z,42.50
2023-02-14T07:41:32.843Z,45.35
2023-02-14T07:43:59.541Z,46.75
2023-02-14T07:46:26.397Z,42.72
2023-02-14T07:48:53.127Z,37.30
2023-02-14T07:51:19.927Z,37.35
2023-02-14T07:53:47.291Z,39.30
2023-02-14T07:56:14.128Z,31.65
2023-02-14T07:58:41.107Z,38.47
2023-02-14T08:01:07.944Z,40.20
2023-02-14T08:03:34.713Z,34.45
2023-02-14T08:06:01.512Z,36.55
2023-02-14T08:08:30.986Z,36.00
2023-02-14T08:10:58.435Z,32.95
2023-02-14T08:13:25.695Z,29.80
2023-02-14T08:16:04.429Z,32.00
2023-02-14T08:18:41.781Z,29.98
2023-02-14T08:21:11.273Z,35.88
2023-02-14T08:23:38.429Z,31.35
2023-02-14T08:26:05.730Z,33.08
2023-02-14T08:28:33.280Z,28.58
2023-02-14T08:31:00.785Z,30.15
2023-02-14T08:33:28.511Z,28.05
2023-02-14T08:35:55.247Z,28.80
2023-02-14T08:38:21.935Z,34.53
2023-02-14T08:40:48.673Z,28.50
2023-02-14T08:43:15.543Z,26.52
2023-02-14T16:11:44.701Z,19.38
2023-02-14T16:14:20.708Z,24.42
2023-02-14T16:17:31.964Z,26.42
2023-02-14T16:19:59.447Z,23.27
2023-02-14T16:22:32.009Z,26.33
2023-02-14T16:24:59.483Z,21.25
2023-02-14T16:27:26.132Z,25.73
2023-02-14T16:29:53.029Z,24.92
2023-02-14T16:32:24.400Z,28.92
2023-02-14T16:34:51.390Z,26.42
2023-02-14T16:38:46.585Z,21.80
2023-02-14T16:41:20.969Z,25.58
2023-02-14T16:43:49.172Z,24.75
2023-02-14T16:46:21.222Z,24.40
2023-02-14T16:48:52.143Z,25.65
2023-02-14T16:51:24.583Z,26.58
2023-02-14T16:53:51.569Z,29.75
2023-02-14T16:56:32.388Z,33.78
2023-02-14T16:58:59.351Z,23.60
2023-02-14T17:01:26.309Z,28.88
2023-02-14T17:03:53.053Z,28.02
2023-02-14T17:06:24.632Z,32.10
2023-02-14T17:08:52.642Z,30.38
2023-02-14T17:11:20.502Z,33.33
2023-02-14T17:13:48.555Z,41.70
2023-02-14T17:16:16.868Z,53.28
2023-02-14T17:18:50.324Z,44.58
2023-02-14T17:21:20.754Z,36.92
2023-02-14T17:23:47.727Z,35.92
2023-02-14T17:26:14.467Z,31.90
2023-02-14T17:28:41.101Z,37.35
2023-02-14T17:31:08.234Z,30.85
2023-02-14T17:33:35.604Z,30.80
2023-02-14T17:36:07.242Z,28.90
2023-02-14T17:44:23.151Z,32.78
2023-02-14T17:46:50.250Z,32.53
2023-02-14T17:49:16.972Z,33.70
2023-02-14T17:51:43.657Z,37.05
2023-02-14T17:56:51.901Z,34.08
2023-02-14T17:59:18.644Z,33.95
2023-02-14T18:01:45.339Z,36.20
2023-02-14T18:04:12.335Z,36.55
2023-02-14T18:06:40.282Z,36.10
2023-02-14T18:09:07.531Z,47.22
2023-02-14T18:11:34.234Z,39.35
2023-02-14T18:14:01.765Z,40.33
2023-02-14T18:16:28.673Z,42.70
2023-02-14T18:18:55.332Z,48.05
2023-02-14T18:21:24.460Z,55.92
2023-02-14T18:25:07.090Z,42.28
2023-02-14T18:27:35.586Z,47.20
2023-02-14T18:30:02.530Z,40.45
2023-02-14T18:32:29.268Z,39.30
2023-02-14T18:34:56.010Z,38.97
2023-02-14T18:42:13.292Z,36.83
2023-02-14T18:44:39.983Z,33.75
2023-02-14T18:47:08.413Z,34.72
2023-02-14T18:49:35.092Z,31.33
2023-02-14T18:52:01.851Z,30.98
2023-02-14T18:54:28.628Z,26.98
2023-02-14T18:56:55.271Z,31.70
2023-02-14T18:59:22.556Z,31.33
2023-02-14T19:01:49.352Z,28.85
2023-02-14T19:04:17.831Z,27.67
2023-02-14T19:06:44.836Z,27.30
2023-02-14T19:09:17.136Z,29.52
2023-02-14T19:11:45.226Z,29.80
2023-02-14T19:14:13.269Z,28.85
2023-02-14T19:16:53.462Z,27.52
2023-02-14T19:19:20.580Z,29.92
2023-02-14T19:21:47.316Z,31.17
2023-02-14T19:24:16.464Z,34.53
2023-02-14T19:26:43.520Z,30.98
2023-02-14T19:29:14.254Z,29.17
2023-02-14T19:31:45.368Z,27.20
2023-02-14T19:34:18.550Z,30.77
2023-02-14T19:36:45.980Z,29.77
2023-02-14T19:39:13.638Z,27.02
2023-02-14T19:41:40.926Z,29.98
2023-02-14T19:44:10.180Z,34.75
2023-02-14T19:46:38.253Z,34.83
2023-02-14T19:49:05.197Z,36.45
2023-02-14T19:51:35.995Z,31.08
2023-02-14T19:54:08.422Z,28.25
2023-02-14T19:56:38.462Z,33.53
2023-02-14T19:59:09.464Z,24.65
2023-02-14T20:01:41.986Z,32.50
2023-02-14T20:04:14.591Z,29.45
2023-02-14T20:06:43.235Z,35.22
2023-02-14T20:09:10.318Z,34.45
2023-02-14T20:11:46.685Z,35.55
2023-02-14T20:14:14.491Z,36.85
2023-02-14T20:16:41.300Z,40.42
2023-02-14T20:19:12.705Z,37.58
2023-02-14T20:21:46.365Z,36.88
2023-02-14T20:24:18.110Z,32.28
2023-02-14T20:26:45.669Z,31.73
2023-02-14T20:29:12.427Z,36.08
2023-02-14T20:31:46.080Z,38.42
2023-02-14T20:34:13.707Z,39.78
2023-02-14T20:36:41.692Z,40.70
2023-02-14T20:39:10.841Z,34.88
2023-02-14T20:41:37.697Z,35.38
2023-02-14T20:44:12.080Z,33.78
2023-02-14T20:46:38.950Z,33.70
2023-02-14T20:49:05.763Z,36.25
2023-02-14T20:51:32.882Z,37.45
2023-02-14T20:53:59.586Z,37.25
2023-02-14T20:56:26.343Z,42.83
2023-02-14T20:58:53.266Z,36.90
2023-02-14T21:01:23.630Z,38.75
2023-02-14T21:03:53.068Z,37.45
2023-02-14T21:06:26.065Z,35.65
2023-02-14T21:08:53.080Z,41.22
2023-02-14T21:11:22.680Z,37.80
2023-02-14T21:13:49.470Z,41.78
2023-02-14T21:16:19.779Z,39.50
2023-02-14T21:18:58.758Z,37.20
2023-02-14T21:21:33.682Z,39.60
2023-02-14T21:24:03.641Z,37.15
2023-02-14T21:26:30.897Z,42.72
2023-02-14T21:28:58.010Z,39.35
2023-02-14T21:31:27.643Z,36.70
2023-02-14T21:33:57.430Z,39.95
2023-02-14T21:36:27.451Z,43.10
2023-02-14T21:38:59.239Z,40.20
2023-02-14T21:41:29.361Z,39.58
2023-02-14T21:43:58.166Z,40.33
2023-02-14T21:46:35.939Z,36.97
2023-02-14T21:49:23.938Z,40.50
2023-02-14T21:51:50.855Z,38.42
2023-02-14T21:54:17.828Z,38.42
2023-02-14T21:56:45.136Z,40.97
2023-02-14T21:59:12.050Z,40.47
2023-02-14T22:01:41.697Z,38.75
2023-02-14T22:04:12.178Z,43.88
2023-02-14T22:06:41.614Z,43.45
2023-02-14T22:09:10.773Z,39.15
2023-02-14T22:11:37.665Z,49.33
2023-02-14T22:14:04.499Z,45.58
2023-02-14T22:16:31.772Z,43.72
2023-02-14T22:18:58.518Z,45.17
2023-02-14T22:21:27.087Z,44.28
2023-02-14T22:23:55.506Z,47.10
2023-02-14T22:26:26.124Z,42.97
2023-02-14T22:28:57.458Z,46.40
2023-02-14T22:31:26.155Z,45.88
2023-02-14T22:33:53.466Z,43.97
2023-02-14T22:36:21.207Z,46.30
2023-02-14T22:38:48.381Z,44.15
2023-02-14T22:41:19.024Z,48.63
2023-02-14T22:43:46.111Z,41.03
2023-02-14T22:46:19.345Z,40.58
2023-02-14T22:48:48.069Z,42.55
2023-02-14T22:51:32.564Z,43.00
2023-02-14T22:54:06.204Z,40.20
2023-02-14T22:56:39.593Z,44.47
2023-02-14T22:59:28.192Z,45.35
2023-02-14T23:01:54.987Z,50.97
2023-02-14T23:04:24.736Z,51.17
2023-02-14T23:06:53.411Z,51.30
2023-02-14T23:09:20.654Z,50.55
2023-02-14T23:11:48.273Z,43.60
2023-02-14T23:14:36.024Z,51.15
2023-02-14T23:17:16.121Z,47.83
2023-02-14T23:20:02.847Z,60.15
2023-02-14T23:22:40.960Z,50.53
2023-02-14T23:25:11.636Z,51.78
2023-02-14T23:27:45.066Z,58.60
2023-02-14T23:30:16.112Z,52.03
2023-02-14T23:32:43.365Z,53.42
2023-02-14T23:35:10.180Z,55.63
2023-02-14T23:37:36.937Z,56.83
2023-02-14T23:40:04.213Z,52.85
2023-02-14T23:42:31.066Z,51.58
2023-02-14T23:45:17.822Z,57.47
2023-02-14T23:47:44.546Z,46.58
2023-02-14T23:50:11.400Z,53.22
2023-02-14T23:52:41.646Z,57.63
2023-02-14T23:55:09.137Z,49.88
2023-02-14T23:57:36.138Z,54.28
